Terminal Aerodrome Forecast
Issued by NWS

Home | Current Version | Previous Version | Text Only | Print | Product List | Glossary On
Versions: 1 2 3 4 5 6 7 8 9 10 11 12 13 14 15
000
FTUS46 KMTR 192300
TAFOAK
TAF
KOAK 192320Z 2000/2106 28008KT P6SM FEW010
     FM200300 28007KT P6SM BKN010
     FM201000 31004KT P6SM OVC010
     FM201800 30011KT P6SM SCT015
     FM202000 29012KT P6SM SKC
     FM210400 29006KT P6SM SKC=

USA.gov is the U.S. government's official web portal to all federal, state and local government web resources and services.